createdAt,value
2018-12-31T00:02:25.653Z,102354.95
2018-12-31T00:04:55.286Z,102361.00
2018-12-31T00:07:24.978Z,102362.14
2018-12-31T00:09:54.722Z,102364.11
2018-12-31T00:12:24.432Z,102372.13
2018-12-31T00:14:54.112Z,102373.95
2018-12-31T00:17:23.745Z,102372.66
2018-12-31T00:19:53.722Z,102375.46
2018-12-31T00:22:23.402Z,102383.03
2018-12-31T00:24:53.074Z,102391.12
2018-12-31T00:27:22.722Z,102393.85
2018-12-31T00:29:52.397Z,102393.25
2018-12-31T00:32:22.047Z,102404.08
2018-12-31T00:35:10.685Z,102402.03
2018-12-31T00:37:51.381Z,102403.09
2018-12-31T00:40:21.422Z,102400.44
2018-12-31T00:42:51.051Z,102411.73
2018-12-31T00:45:20.696Z,102402.27
2018-12-31T00:47:50.365Z,102404.23
2018-12-31T00:50:20.016Z,102411.65
2018-12-31T00:53:09.509Z,102417.25
2018-12-31T00:55:39.167Z,102414.60
2018-12-31T00:58:08.881Z,102411.42
2018-12-31T01:00:38.583Z,102412.70
2018-12-31T01:03:08.231Z,102409.37
2018-12-31T01:05:37.879Z,102423.84
2018-12-31T01:08:07.543Z,102422.32
2018-12-31T01:10:37.289Z,102423.77
2018-12-31T01:13:06.921Z,102426.11
2018-12-31T01:15:36.613Z,102421.48
2018-12-31T01:18:06.227Z,102418.16
2018-12-31T01:20:36.059Z,102418.68
2018-12-31T01:23:05.738Z,102423.60
2018-12-31T01:25:35.368Z,102422.08
2018-12-31T01:28:05.067Z,102423.91
2018-12-31T01:36:25.153Z,102416.55
2018-12-31T01:38:54.815Z,102411.25
2018-12-31T01:41:24.480Z,102415.12
2018-12-31T01:43:54.166Z,102415.50
2018-12-31T01:46:23.790Z,102418.45
2018-12-31T01:48:53.411Z,102421.03
2018-12-31T01:51:23.179Z,102427.47
2018-12-31T01:53:52.798Z,102425.12
2018-12-31T01:56:22.450Z,102430.65
2018-12-31T01:58:52.266Z,102431.11
2018-12-31T02:01:40.867Z,102430.43
2018-12-31T02:04:10.530Z,102432.70
2018-12-31T02:06:40.163Z,102435.58
2018-12-31T02:09:09.789Z,102440.28
2018-12-31T02:11:39.617Z,102444.97
2018-12-31T02:14:09.255Z,102447.09
2018-12-31T02:16:38.884Z,102441.11
2018-12-31T02:19:08.564Z,102442.09
2018-12-31T02:21:38.625Z,102448.06
2018-12-31T02:24:08.323Z,102450.25
2018-12-31T02:26:38.413Z,102442.89
2018-12-31T02:29:08.088Z,102446.14
2018-12-31T02:31:37.854Z,102449.38
2018-12-31T02:34:07.546Z,102452.24
2018-12-31T02:36:39.873Z,102450.33
2018-12-31T02:39:09.526Z,102447.67
2018-12-31T02:41:39.191Z,102446.52
2018-12-31T02:44:08.910Z,102439.23
2018-12-31T02:46:38.518Z,102447.39
2018-12-31T02:51:57.057Z,102437.67
2018-12-31T02:54:26.732Z,102433.34
2018-12-31T02:56:56.369Z,102432.72
2018-12-31T02:59:37.849Z,102432.40
2018-12-31T03:02:07.570Z,102421.64
2018-12-31T03:04:37.195Z,102427.75
2018-12-31T03:07:06.876Z,102433.86
2018-12-31T03:09:36.509Z,102436.27
2018-12-31T03:12:06.252Z,102438.37
2018-12-31T03:14:35.933Z,102433.81
2018-12-31T03:17:05.565Z,102423.91
2018-12-31T03:19:35.187Z,102427.39
2018-12-31T03:22:05.048Z,102432.91
2018-12-31T03:24:34.740Z,102433.66
2018-12-31T03:27:25.624Z,102436.82
2018-12-31T03:29:55.258Z,102440.52
2018-12-31T03:32:24.903Z,102450.47
2018-12-31T03:34:54.617Z,102447.37
2018-12-31T03:37:24.455Z,102438.00
2018-12-31T03:39:54.107Z,102438.38
2018-12-31T03:42:23.752Z,102442.98
2018-12-31T03:44:53.372Z,102434.73
2018-12-31T03:47:23.202Z,102438.97
2018-12-31T03:50:11.750Z,102437.73
2018-12-31T03:52:41.387Z,102437.20
2018-12-31T03:55:11.056Z,102443.09
2018-12-31T03:57:40.702Z,102439.45
2018-12-31T04:00:10.471Z,102447.53
2018-12-31T04:02:40.135Z,102442.39
2018-12-31T04:05:09.804Z,102447.96
2018-12-31T04:07:39.654Z,102446.56
2018-12-31T04:10:09.302Z,102442.18
2018-12-31T04:12:39.056Z,102439.98
2018-12-31T04:15:08.674Z,102441.86
2018-12-31T04:20:26.858Z,102444.36
2018-12-31T04:22:56.831Z,102451.75
2018-12-31T04:25:26.547Z,102452.53
2018-12-31T04:27:56.229Z,102451.45
2018-12-31T04:30:25.847Z,102457.55
2018-12-31T04:32:55.481Z,102461.83
2018-12-31T04:35:25.183Z,102460.00
2018-12-31T04:37:55.104Z,102465.14
2018-12-31T04:40:24.717Z,102468.45
2018-12-31T04:43:13.223Z,102466.42
2018-12-31T04:46:01.739Z,102466.91
2018-12-31T04:48:31.472Z,102455.94
2018-12-31T04:51:01.135Z,102454.66
2018-12-31T04:53:30.796Z,102457.55
2018-12-31T04:56:19.290Z,102450.38
2018-12-31T04:58:48.923Z,102447.28
2018-12-31T05:01:18.692Z,102437.31
2018-12-31T05:06:23.697Z,102446.14
2018-12-31T05:08:53.345Z,102444.86
2018-12-31T05:11:22.963Z,102441.01
2018-12-31T05:13:52.940Z,102439.94
2018-12-31T05:18:57.585Z,102438.75
2018-12-31T05:21:27.218Z,102449.06
2018-12-31T05:23:57.445Z,102442.69
2018-12-31T05:26:27.072Z,102447.12
2018-12-31T05:28:56.765Z,102448.61
2018-12-31T05:31:26.394Z,102449.52
2018-12-31T05:33:56.050Z,102445.13
2018-12-31T05:36:25.717Z,102449.89
2018-12-31T05:38:55.537Z,102450.59
2018-12-31T05:41:25.175Z,102449.31
2018-12-31T05:43:54.837Z,102450.27
2018-12-31T05:46:24.485Z,102449.20
2018-12-31T05:48:54.129Z,102451.05
2018-12-31T05:51:23.891Z,102446.34
2018-12-31T05:53:53.518Z,102446.38
2018-12-31T05:56:23.154Z,102440.55
2018-12-31T05:58:52.825Z,102441.09
2018-12-31T06:01:41.395Z,102435.21
2018-12-31T06:04:11.274Z,102437.78
2018-12-31T06:06:40.999Z,102440.34
2018-12-31T06:09:10.731Z,102445.31
2018-12-31T06:11:40.416Z,102439.39
2018-12-31T06:14:10.345Z,102436.61
2018-12-31T06:16:39.972Z,102442.00
2018-12-31T06:19:09.648Z,102443.53
2018-12-31T06:21:39.292Z,102445.56
2018-12-31T06:24:11.674Z,102442.29
2018-12-31T06:26:41.343Z,102447.00
2018-12-31T06:29:10.983Z,102444.40
2018-12-31T06:31:40.646Z,102441.62
2018-12-31T06:34:10.345Z,102433.84
2018-12-31T06:36:39.974Z,102429.98
2018-12-31T06:39:10.029Z,102433.42
2018-12-31T06:41:39.744Z,102424.11
2018-12-31T06:44:09.386Z,102423.20
2018-12-31T06:46:39.033Z,102428.70
2018-12-31T06:49:08.730Z,102419.36
2018-12-31T06:51:38.420Z,102412.89
2018-12-31T06:54:08.091Z,102417.98
2018-12-31T06:56:37.784Z,102420.13
2018-12-31T06:59:07.428Z,102419.55
2018-12-31T07:01:37.081Z,102410.56
2018-12-31T07:04:06.784Z,102407.78
2018-12-31T07:06:36.584Z,102405.54
2018-12-31T07:09:07.715Z,102410.78
2018-12-31T07:11:37.393Z,102402.29
2018-12-31T07:14:07.023Z,102408.28
2018-12-31T07:16:36.659Z,102402.02
2018-12-31T07:19:06.357Z,102407.64
2018-12-31T07:21:35.991Z,102405.90
2018-12-31T07:24:05.644Z,102400.55
2018-12-31T07:26:35.520Z,102400.13
2018-12-31T07:29:05.180Z,102400.61
2018-12-31T07:31:34.820Z,102407.50
2018-12-31T07:34:04.484Z,102403.06
2018-12-31T07:36:40.928Z,102409.27
2018-12-31T07:39:10.609Z,102391.61
2018-12-31T07:41:40.334Z,102392.89
2018-12-31T07:44:09.973Z,102389.20
2018-12-31T07:46:39.675Z,102389.14
2018-12-31T07:49:09.304Z,102389.24
2018-12-31T07:52:18.100Z,102390.03
2018-12-31T07:54:47.737Z,102358.16
2018-12-31T07:57:17.379Z,102381.08
2018-12-31T07:59:47.042Z,102377.75
2018-12-31T08:02:16.683Z,102375.50
2018-12-31T08:04:46.377Z,102365.16
2018-12-31T08:07:27.530Z,102364.72
2018-12-31T08:09:57.220Z,102358.61
2018-12-31T08:15:22.095Z,102356.28
2018-12-31T08:17:51.726Z,102356.44
2018-12-31T08:20:21.367Z,102361.67
2018-12-31T08:22:51.026Z,102349.94
2018-12-31T08:25:20.670Z,102350.09
2018-12-31T08:27:50.482Z,102348.59
2018-12-31T08:30:20.177Z,102349.13
2018-12-31T08:32:49.809Z,102363.42
2018-12-31T08:35:19.469Z,102368.80
2018-12-31T08:37:49.130Z,102370.24
2018-12-31T08:40:18.799Z,102366.02
2018-12-31T08:42:48.657Z,102364.88
2018-12-31T08:45:18.344Z,102368.95
2018-12-31T08:47:47.965Z,102359.20
2018-12-31T08:50:17.602Z,102356.63
2018-12-31T08:52:47.333Z,102347.26
2018-12-31T08:55:17.010Z,102340.45
2018-12-31T08:57:46.742Z,102335.08
2018-12-31T09:00:16.524Z,102325.10
2018-12-31T09:02:46.171Z,102318.45
2018-12-31T09:05:15.790Z,102304.84
2018-12-31T09:07:45.459Z,102304.00
2018-12-31T09:10:33.978Z,102305.75
2018-12-31T09:13:03.826Z,102301.51
2018-12-31T09:15:33.501Z,102294.85
2018-12-31T09:18:03.253Z,102292.51
2018-12-31T09:20:32.931Z,102288.19
2018-12-31T09:23:02.561Z,102282.89
2018-12-31T09:25:32.183Z,102276.70
2018-12-31T09:28:02.241Z,102273.44
2018-12-31T09:30:32.012Z,102273.59
2018-12-31T09:33:01.682Z,102272.84
2018-12-31T09:35:31.424Z,102269.51
2018-12-31T09:38:01.122Z,102266.33
2018-12-31T09:40:30.772Z,102248.33
2018-12-31T09:43:00.595Z,102242.50
2018-12-31T09:45:30.252Z,102237.20
2018-12-31T09:47:59.915Z,102230.30
2018-12-31T09:50:29.576Z,102222.73
2018-12-31T09:52:59.214Z,102217.28
2018-12-31T09:55:47.742Z,102209.64
2018-12-31T09:58:17.426Z,102206.91
2018-12-31T10:00:47.075Z,102199.39
2018-12-31T10:03:16.836Z,102194.77
2018-12-31T10:05:46.493Z,102193.93
2018-12-31T10:08:16.131Z,102185.91
2018-12-31T10:10:47.565Z,102188.05
2018-12-31T10:13:17.776Z,102186.70
2018-12-31T10:15:47.450Z,102162.56
2018-12-31T10:18:17.204Z,102153.35
2018-12-31T10:20:46.830Z,102142.24
2018-12-31T10:26:05.135Z,102139.98
2018-12-31T10:28:35.211Z,102133.64
2018-12-31T10:31:04.890Z,102127.20
2018-12-31T10:36:10.252Z,102126.98
2018-12-31T10:38:39.980Z,102117.22
2018-12-31T10:41:09.614Z,102114.79
2018-12-31T10:43:39.285Z,102096.87
2018-12-31T10:46:09.057Z,102096.05
2018-12-31T10:48:38.716Z,102090.76
2018-12-31T10:51:08.375Z,102096.34
2018-12-31T10:53:38.097Z,102090.35
2018-12-31T10:56:07.772Z,102079.97
2018-12-31T10:58:56.412Z,102105.61
2018-12-31T11:01:37.165Z,102078.75
2018-12-31T11:04:06.847Z,102067.23
2018-12-31T11:06:36.621Z,102061.75
2018-12-31T11:09:07.564Z,102048.65
2018-12-31T11:11:37.355Z,102045.70
2018-12-31T11:14:07.002Z,102039.84
2018-12-31T11:16:36.645Z,102030.88
2018-12-31T11:19:06.789Z,102028.36
2018-12-31T11:21:36.455Z,102026.83
2018-12-31T11:24:25.275Z,102023.78
2018-12-31T11:26:54.954Z,102016.10
2018-12-31T11:29:25.026Z,102012.28
2018-12-31T11:31:54.727Z,102009.84
2018-12-31T11:34:24.339Z,102005.74
2018-12-31T11:36:54.775Z,101994.97
2018-12-31T11:39:24.499Z,101984.95
2018-12-31T11:41:54.136Z,101968.34
2018-12-31T11:44:23.775Z,101958.33
2018-12-31T11:46:53.516Z,101961.84
2018-12-31T11:49:23.171Z,101943.05
2018-12-31T11:51:52.849Z,101932.39
2018-12-31T11:54:22.576Z,101921.46
2018-12-31T11:56:52.171Z,101894.30
2018-12-31T11:59:22.079Z,101879.89
2018-12-31T12:01:51.814Z,101875.39
2018-12-31T12:04:21.501Z,101872.70
2018-12-31T12:06:51.163Z,101875.94
2018-12-31T12:09:21.030Z,101874.80
2018-12-31T12:12:09.871Z,101870.69
2018-12-31T12:14:41.429Z,101863.23
2018-12-31T12:17:11.076Z,101846.88
2018-12-31T12:19:40.716Z,101843.41
2018-12-31T12:22:10.450Z,101829.51
2018-12-31T12:24:40.101Z,101800.00
2018-12-31T12:27:09.780Z,101787.00
2018-12-31T12:29:39.918Z,101781.20
2018-12-31T12:32:09.545Z,101773.73
2018-12-31T12:34:39.175Z,101778.25
2018-12-31T12:37:08.895Z,101791.14
2018-12-31T12:39:38.549Z,101784.19
2018-12-31T12:42:08.191Z,101776.80
2018-12-31T12:47:13.370Z,101756.56
2018-12-31T12:50:01.902Z,101749.98
2018-12-31T12:52:31.558Z,101737.36
2018-12-31T12:55:01.183Z,101721.75
2018-12-31T12:57:32.583Z,101718.65
2018-12-31T13:00:02.252Z,101713.75
2018-12-31T13:02:31.877Z,101704.59
2018-12-31T13:05:03.739Z,101695.69
2018-12-31T13:07:32.963Z,101689.09
2018-12-31T13:10:02.611Z,101680.20
2018-12-31T13:12:32.502Z,101674.77
2018-12-31T13:15:02.114Z,101664.70
2018-12-31T13:17:50.586Z,101653.73
2018-12-31T13:20:20.218Z,101647.02
2018-12-31T13:22:49.941Z,101640.70
2018-12-31T13:27:55.300Z,101575.53
2018-12-31T13:33:00.034Z,101617.70
2018-12-31T13:35:29.808Z,101604.53
2018-12-31T13:37:59.448Z,101609.43
2018-12-31T13:40:29.109Z,101599.23
2018-12-31T13:42:58.817Z,101589.42
2018-12-31T13:45:28.459Z,101576.52
2018-12-31T13:47:58.109Z,101571.98
2018-12-31T13:50:27.868Z,101562.69
2018-12-31T13:52:57.586Z,101554.28
2018-12-31T13:55:46.342Z,101550.53
2018-12-31T13:58:16.015Z,101531.41
2018-12-31T14:00:45.681Z,101523.40
2018-12-31T14:05:50.908Z,101497.31
2018-12-31T14:08:20.571Z,101486.21
2018-12-31T14:13:30.907Z,101453.05
2018-12-31T14:16:00.537Z,101451.25
2018-12-31T14:18:30.164Z,101432.67
2018-12-31T14:21:00.015Z,101424.54
2018-12-31T14:23:29.707Z,101411.75
2018-12-31T14:26:18.204Z,101397.91
2018-12-31T14:28:59.053Z,101378.27
2018-12-31T14:31:28.951Z,101370.36
2018-12-31T14:34:00.883Z,101369.80
2018-12-31T14:36:30.583Z,101372.22
2018-12-31T14:39:02.007Z,101349.44
2018-12-31T14:41:31.674Z,101334.69
2018-12-31T14:44:01.417Z,101338.27
2018-12-31T14:46:31.185Z,101333.84
2018-12-31T14:49:00.691Z,101328.79
2018-12-31T14:51:30.418Z,101330.70
2018-12-31T14:54:18.900Z,101330.41
2018-12-31T14:56:48.568Z,101318.40
2018-12-31T14:59:19.923Z,101315.03
2018-12-31T15:01:49.649Z,101318.01
2018-12-31T15:04:19.295Z,101313.62
2018-12-31T15:06:48.950Z,101315.31
2018-12-31T15:09:18.692Z,101318.17
2018-12-31T15:11:48.381Z,101318.06
2018-12-31T15:14:18.083Z,101303.25
2018-12-31T15:17:06.592Z,101293.08
2018-12-31T15:19:37.967Z,101284.72
2018-12-31T15:22:07.588Z,101279.95
2018-12-31T15:27:13.479Z,101257.72
2018-12-31T15:29:43.169Z,101255.14
2018-12-31T15:32:12.931Z,101250.59
2018-12-31T15:34:42.660Z,101231.72
2018-12-31T15:37:32.905Z,101221.00
2018-12-31T15:40:02.538Z,101213.76
2018-12-31T15:42:32.221Z,101191.80
2018-12-31T15:45:01.953Z,101186.25
2018-12-31T15:50:20.203Z,101166.48
2018-12-31T15:52:49.841Z,101176.03
2018-12-31T15:55:19.613Z,101163.62
2018-12-31T15:57:49.314Z,101155.87
2018-12-31T16:00:20.676Z,101158.56
2018-12-31T16:02:50.310Z,101126.67
2018-12-31T16:05:20.056Z,101115.84
2018-12-31T16:07:49.681Z,101109.89
2018-12-31T16:10:19.315Z,101096.08
2018-12-31T16:12:49.007Z,101097.98
2018-12-31T16:15:18.718Z,101092.92
2018-12-31T16:17:48.360Z,101079.22
2018-12-31T16:20:18.007Z,101076.23
2018-12-31T16:22:47.645Z,101073.87
2018-12-31T16:25:17.315Z,101054.09
2018-12-31T16:27:46.939Z,101043.37
2018-12-31T16:30:16.581Z,101056.50
2018-12-31T16:32:46.296Z,101057.50
2018-12-31T16:35:35.306Z,101043.50
2018-12-31T16:38:04.922Z,101045.39
2018-12-31T16:40:34.561Z,101033.37
2018-12-31T16:45:59.423Z,101018.88
2018-12-31T16:48:29.076Z,101023.74
2018-12-31T16:51:17.682Z,101021.16
2018-12-31T16:53:47.309Z,101012.52
2018-12-31T16:56:16.940Z,101002.58
2018-12-31T16:58:46.677Z,100982.31
2018-12-31T17:01:16.320Z,100980.63
2018-12-31T17:03:46.148Z,100961.64
2018-12-31T17:06:34.689Z,100975.95
2018-12-31T17:12:13.213Z,100935.61
2018-12-31T17:14:42.831Z,100918.81
2018-12-31T17:17:14.349Z,100910.17
2018-12-31T17:20:02.960Z,100901.13
2018-12-31T17:22:32.647Z,100901.23
2018-12-31T17:25:02.306Z,100893.19
2018-12-31T17:27:31.921Z,100882.45
2018-12-31T17:30:01.592Z,100885.14
2018-12-31T17:32:31.217Z,100870.03
2018-12-31T17:35:01.026Z,100865.27
2018-12-31T17:37:30.999Z,100692.48
2018-12-31T17:40:00.612Z,100853.44
2018-12-31T17:42:30.260Z,100843.20
2018-12-31T17:44:59.910Z,100839.42
2018-12-31T17:47:29.556Z,100833.86
2018-12-31T17:50:00.909Z,100835.73
2018-12-31T17:52:30.581Z,100810.00
2018-12-31T17:55:00.213Z,100791.02
2018-12-31T17:57:29.869Z,100769.34
2018-12-31T17:59:59.550Z,100765.23
2018-12-31T18:02:29.365Z,100750.41
2018-12-31T18:04:59.093Z,100744.66
2018-12-31T18:07:28.751Z,100725.67
2018-12-31T18:09:58.384Z,100716.93
2018-12-31T18:12:28.089Z,100705.30
2018-12-31T18:14:57.770Z,100686.41
2018-12-31T18:17:27.387Z,100663.95
2018-12-31T18:19:58.845Z,100652.81
2018-12-31T18:22:28.674Z,100647.24
2018-12-31T18:24:58.308Z,100637.48
2018-12-31T18:27:27.951Z,100637.98
2018-12-31T18:29:57.676Z,100636.87
2018-12-31T18:32:27.334Z,100643.73
2018-12-31T18:34:57.145Z,100642.53
2018-12-31T18:37:28.600Z,100632.19
2018-12-31T18:39:58.359Z,100601.58
2018-12-31T18:42:27.947Z,100599.48
2018-12-31T18:44:57.675Z,100589.63
2018-12-31T18:50:41.862Z,100569.63
2018-12-31T18:53:11.482Z,100550.32
2018-12-31T18:55:41.086Z,100540.96
2018-12-31T18:58:10.762Z,100545.81
2018-12-31T19:00:40.382Z,100547.28
2018-12-31T19:03:10.031Z,100549.25
2018-12-31T19:05:39.983Z,100547.95
2018-12-31T19:08:09.617Z,100545.05
2018-12-31T19:10:39.250Z,100542.56
2018-12-31T19:13:08.911Z,100530.61
2018-12-31T19:15:38.544Z,100519.06
2018-12-31T19:18:08.156Z,100518.66
2018-12-31T19:20:38.144Z,100515.34
2018-12-31T19:23:26.565Z,100290.97
2018-12-31T19:25:56.235Z,100498.88
2018-12-31T19:28:27.617Z,100505.70
2018-12-31T19:30:57.264Z,100493.25
2018-12-31T19:33:26.906Z,100478.63
2018-12-31T19:35:56.545Z,100468.36
2018-12-31T19:38:26.372Z,100460.28
2018-12-31T19:40:56.068Z,100469.73
2018-12-31T19:43:25.686Z,100350.92
2018-12-31T19:45:55.319Z,100441.70
2018-12-31T19:48:24.963Z,100433.63
2018-12-31T19:50:54.601Z,100432.81
2018-12-31T19:53:24.358Z,100429.50
2018-12-31T19:55:54.124Z,100427.56
2018-12-31T19:58:23.853Z,100423.85
2018-12-31T20:00:53.483Z,100421.51
2018-12-31T20:03:23.192Z,100406.55
2018-12-31T20:05:53.278Z,100399.27
2018-12-31T20:08:22.934Z,100402.50
2018-12-31T20:13:27.668Z,100388.56
2018-12-31T20:15:59.064Z,100391.80
2018-12-31T20:18:28.719Z,100372.70
2018-12-31T20:20:58.366Z,100363.39
2018-12-31T20:23:28.227Z,100353.19
2018-12-31T20:25:58.008Z,100341.93
2018-12-31T20:28:29.312Z,100322.00
2018-12-31T20:30:58.984Z,100306.55
2018-12-31T20:33:28.654Z,100284.05
2018-12-31T20:35:58.309Z,100256.86
2018-12-31T20:38:28.000Z,100253.46
2018-12-31T20:41:01.903Z,100265.11
2018-12-31T20:43:31.527Z,100264.30
2018-12-31T20:46:01.212Z,100265.27
2018-12-31T20:48:30.850Z,100266.63
2018-12-31T20:51:00.513Z,100273.26
2018-12-31T20:53:32.203Z,100259.09
2018-12-31T20:56:02.082Z,100248.06
2018-12-31T20:58:31.709Z,100236.48
2018-12-31T21:01:01.442Z,100226.27
2018-12-31T21:03:31.090Z,100201.33
2018-12-31T21:08:51.260Z,100179.94
2018-12-31T21:11:20.890Z,100170.19
2018-12-31T21:13:50.562Z,100154.72
2018-12-31T21:16:20.265Z,100144.91
2018-12-31T21:19:08.959Z,100136.86
2018-12-31T21:21:38.644Z,100127.12
2018-12-31T21:24:08.518Z,100114.70
2018-12-31T21:26:38.448Z,100104.48
2018-12-31T21:29:27.482Z,100116.28
2018-12-31T21:31:58.445Z,100121.67
2018-12-31T21:34:28.062Z,100115.80
2018-12-31T21:36:57.755Z,100128.83
2018-12-31T21:39:27.433Z,100113.34
2018-12-31T21:41:57.304Z,100110.41
2018-12-31T21:44:27.011Z,100082.52
2018-12-31T21:46:56.665Z,100055.84
2018-12-31T21:49:26.304Z,100050.24
2018-12-31T21:52:14.788Z,100032.23
2018-12-31T21:54:45.000Z,100006.78
2018-12-31T21:57:14.825Z,99977.03
2018-12-31T21:59:44.544Z,99965.02
2018-12-31T22:02:14.174Z,99972.86
2018-12-31T22:04:43.807Z,99967.80
2018-12-31T22:07:15.203Z,99970.93
2018-12-31T22:09:47.049Z,99955.97
2018-12-31T22:15:08.225Z,99932.82
2018-12-31T22:17:37.861Z,99939.78
2018-12-31T22:20:09.146Z,99937.78
2018-12-31T22:22:38.832Z,99930.13
2018-12-31T22:27:57.547Z,99904.48
2018-12-31T22:30:27.176Z,99894.64
2018-12-31T22:32:56.786Z,99887.92
2018-12-31T22:35:26.518Z,99891.98
2018-12-31T22:37:56.148Z,99875.24
2018-12-31T22:40:25.814Z,99862.45
2018-12-31T22:42:55.876Z,99860.96
2018-12-31T22:45:25.541Z,99853.70
2018-12-31T22:47:55.154Z,99837.31
2018-12-31T22:50:24.859Z,99823.45
2018-12-31T22:52:54.486Z,99802.75
2018-12-31T22:55:24.206Z,99772.55
2018-12-31T22:57:53.885Z,99782.15
2018-12-31T23:00:30.101Z,99782.31
2018-12-31T23:02:59.786Z,99781.13
2018-12-31T23:05:30.971Z,99769.14
2018-12-31T23:08:00.615Z,99766.59
2018-12-31T23:13:05.572Z,99745.41
2018-12-31T23:15:37.210Z,99737.58
2018-12-31T23:18:06.965Z,99699.67
2018-12-31T23:20:36.621Z,99731.92
2018-12-31T23:23:06.304Z,99722.52
2018-12-31T23:25:36.039Z,99714.79
2018-12-31T23:28:05.954Z,99707.57
2018-12-31T23:30:35.630Z,99693.34
2018-12-31T23:33:05.275Z,99687.79
2018-12-31T23:35:34.914Z,99682.75
2018-12-31T23:38:04.629Z,99673.30
2018-12-31T23:40:36.027Z,99660.73
2018-12-31T23:43:06.672Z,99650.39
2018-12-31T23:45:37.532Z,99640.89
2018-12-31T23:48:07.160Z,99633.52
2018-12-31T23:50:36.787Z,99626.25
2018-12-31T23:53:06.480Z,99615.86
2018-12-31T23:55:55.086Z,99615.08
2018-12-31T23:58:24.794Z,99612.94
